Time;durP1;ratioP1;P1;durP2;ratioP2;P2;SDS_P1;SDS_P2;PMS_P1;PMS_P2;Temp;Humidity;BMP_temperature;BMP_pressure;BME280_temperature;BME280_humidity;BME280_pressure;Samples;Min_cycle;Max_cycle;Signal;HPM_P1;HPM_P2
2023/03/18 00:02:04;;;;;;;22.08;13.80;;;;;;;;;;5043158;28;20479;-56
2023/03/18 00:04:30;;;;;;;22.60;13.38;;;;;;;;;;5043503;28;20116;-55
2023/03/18 00:06:57;;;;;;;23.25;13.32;;;;;;;;;;5042118;28;20049;-54
2023/03/18 00:09:24;;;;;;;24.05;14.27;;;;;;;;;;5043299;28;20041;-56
2023/03/18 00:11:52;;;;;;;27.42;14.10;;;;;;;;;;5042916;28;20049;-54
2023/03/18 00:14:19;;;;;;;23.20;13.38;;;;;;;;;;5043607;28;20057;-57
2023/03/18 00:16:46;;;;;;;17.13;11.27;;;;;;;;;;5043511;28;20495;-57
2023/03/18 00:19:13;;;;;;;20.67;11.68;;;;;;;;;;5043393;28;20462;-57
2023/03/18 00:21:40;;;;;;;18.02;10.73;;;;;;;;;;5043640;28;20047;-57
2023/03/18 00:24:07;;;;;;;16.90;11.93;;;;;;;;;;5043405;28;20061;-58
2023/03/18 00:26:34;;;;;;;15.43;10.23;;;;;;;;;;5043669;28;20541;-58
2023/03/18 00:29:02;;;;;;;17.58;11.70;;;;;;;;;;5042983;28;20131;-57
2023/03/18 00:31:29;;;;;;;19.45;10.15;;;;;;;;;;5043564;28;20053;-58
2023/03/18 00:33:56;;;;;;;16.00;10.05;;;;;;;;;;5042779;28;20053;-57
2023/03/18 00:36:24;;;;;;;19.27;12.00;;;;;;;;;;5043081;28;20100;-58
2023/03/18 00:38:56;;;;;;;15.40;9.90;;;;;;;;;;5041746;28;20045;-57
2023/03/18 00:41:23;;;;;;;14.95;9.45;;;;;;;;;;5033652;28;20100;-56
2023/03/18 00:43:52;;;;;;;13.52;8.77;;;;;;;;;;5037313;28;20041;-55
2023/03/18 00:46:23;;;;;;;13.45;8.25;;;;;;;;;;5043253;28;20519;-55
2023/03/18 00:48:50;;;;;;;;;;;;;;;;;;5043472;28;20550;-56
2023/03/18 00:51:19;;;;;;;13.23;7.60;;;;;;;;;;5042008;28;19924;-58
2023/03/18 00:53:48;;;;;;;13.25;8.13;;;;;;;;;;5043427;28;20061;-56
2023/03/18 00:56:16;;;;;;;12.90;8.63;;;;;;;;;;5042496;28;20445;-57
2023/03/18 00:58:44;;;;;;;16.42;9.50;;;;;;;;;;5042753;28;20045;-55
2023/03/18 01:01:12;;;;;;;17.90;10.18;;;;;;;;;;5035500;28;20140;-59
2023/03/18 01:03:42;;;;;;;16.95;10.73;;;;;;;;;;5023679;28;20054;-60
2023/03/18 01:06:11;;;;;;;15.63;9.70;;;;;;;;;;5028743;28;20133;-60
2023/03/18 01:08:38;;;;;;;13.50;8.52;;;;;;;;;;5043173;28;20212;-60
2023/03/18 01:11:06;;;;;;;15.40;8.77;;;;;;;;;;5050605;23;20410;-82
2023/03/18 01:13:33;;;;;;;15.07;9.50;;;;;;;;;;5065176;28;21556;-81
2023/03/18 01:16:00;;;;;;;17.38;10.43;;;;;;;;;;5063586;28;20145;-80
2023/03/18 01:18:28;;;;;;;15.00;9.88;;;;;;;;;;5073351;28;20040;-79
2023/03/18 01:20:57;;;;;;;17.85;11.00;;;;;;;;;;5077523;28;20053;-80
2023/03/18 01:23:23;;;;;;;16.92;11.50;;;;;;;;;;5068324;28;20132;-81
2023/03/18 01:25:50;;;;;;;21.90;12.50;;;;;;;;;;5067528;28;20045;-77
2023/03/18 01:28:17;;;;;;;16.02;10.10;;;;;;;;;;5074763;28;20079;-77
2023/03/18 01:30:44;;;;;;;14.07;9.73;;;;;;;;;;5066613;28;20077;-79
2023/03/18 01:33:10;;;;;;;13.40;9.27;;;;;;;;;;5083366;28;20104;-77
2023/03/18 01:35:38;;;;;;;13.48;8.35;;;;;;;;;;5084107;28;20032;-78
2023/03/18 01:38:06;;;;;;;13.00;7.63;;;;;;;;;;5074193;28;20072;-79
2023/03/18 01:40:35;;;;;;;14.38;7.95;;;;;;;;;;5068485;28;20109;-80
2023/03/18 01:43:13;;;;;;;12.13;6.95;;;;;;;;;;5079107;28;20048;-80
2023/03/18 01:45:42;;;;;;;11.18;7.05;;;;;;;;;;5074933;28;20040;-80
2023/03/18 01:48:14;;;;;;;10.48;6.75;;;;;;;;;;5082087;28;20045;-80
2023/03/18 01:50:42;;;;;;;10.80;7.00;;;;;;;;;;5060276;28;20081;-80
2023/03/18 01:53:12;;;;;;;14.23;7.32;;;;;;;;;;5061711;28;20040;-80
2023/03/18 01:55:41;;;;;;;11.35;7.18;;;;;;;;;;5072564;28;20072;-80
2023/03/18 01:58:13;;;;;;;12.27;7.30;;;;;;;;;;5061017;28;20132;-79
2023/03/18 02:00:44;;;;;;;12.65;7.68;;;;;;;;;;5078980;28;20072;-79
2023/03/18 02:03:12;;;;;;;12.75;7.40;;;;;;;;;;5075717;28;20179;-79
2023/03/18 02:05:42;;;;;;;13.25;7.72;;;;;;;;;;5059546;28;20123;-79
2023/03/18 02:08:10;;;;;;;11.57;7.72;;;;;;;;;;5045954;28;20051;-79
2023/03/18 02:10:37;;;;;;;10.88;7.78;;;;;;;;;;5058601;28;20455;-79
2023/03/18 02:13:06;;;;;;;12.85;8.05;;;;;;;;;;5058529;28;20081;-77
2023/03/18 02:15:37;;;;;;;12.55;7.30;;;;;;;;;;5061459;28;20068;-79
2023/03/18 02:18:12;;;;;;;11.52;6.63;;;;;;;;;;5077280;28;20052;-79
2023/03/18 02:20:48;;;;;;;13.43;7.50;;;;;;;;;;5060305;28;20048;-79
2023/03/18 02:23:24;;;;;;;11.15;6.40;;;;;;;;;;5077629;28;20555;-78
2023/03/18 02:25:56;;;;;;;11.65;6.45;;;;;;;;;;5080283;28;20075;-76
2023/03/18 02:28:28;;;;;;;13.15;6.63;;;;;;;;;;5073718;28;20044;-78
2023/03/18 02:31:45;;;;;;;12.38;7.22;;;;;;;;;;5072323;28;20157;-78
2023/03/18 02:34:13;;;;;;;11.45;6.95;;;;;;;;;;5048910;28;20132;-79
2023/03/18 02:36:40;;;;;;;14.27;7.63;;;;;;;;;;5053824;28;20080;-79
2023/03/18 02:39:07;;;;;;;14.82;7.85;;;;;;;;;;5072282;28;20049;-77
2023/03/18 02:41:36;;;;;;;11.73;7.57;;;;;;;;;;5072246;28;20127;-80
2023/03/18 02:44:04;;;;;;;16.42;9.05;;;;;;;;;;5072909;28;20098;-76
2023/03/18 02:46:35;;;;;;;14.88;8.05;;;;;;;;;;5062448;28;20041;-79
2023/03/18 02:49:06;;;;;;;13.43;8.00;;;;;;;;;;5073051;28;20072;-79
2023/03/18 02:51:34;;;;;;;12.45;7.25;;;;;;;;;;5057472;28;20514;-80
2023/03/18 02:54:05;;;;;;;13.65;7.03;;;;;;;;;;5060258;28;20063;-80
2023/03/18 02:56:31;;;;;;;;;;;;;;;;;;5059260;28;20516;-79
2023/03/18 02:58:58;;;;;;;9.27;5.30;;;;;;;;;;5068062;28;19920;-80
2023/03/18 03:01:26;;;;;;;12.50;5.70;;;;;;;;;;5056829;28;20132;-79
2023/03/18 03:03:53;;;;;;;9.23;5.07;;;;;;;;;;5059157;28;20049;-80
2023/03/18 03:06:19;;;;;;;11.05;5.50;;;;;;;;;;5052676;28;20041;-80
2023/03/18 03:08:46;;;;;;;7.80;4.90;;;;;;;;;;5038382;28;20076;-79
2023/03/18 03:11:13;;;;;;;9.23;5.20;;;;;;;;;;5037526;28;20049;-80
2023/03/18 03:13:41;;;;;;;9.60;4.93;;;;;;;;;;5037000;28;20052;-80
2023/03/18 03:16:09;;;;;;;10.75;5.28;;;;;;;;;;5070884;28;20051;-79
2023/03/18 03:18:37;;;;;;;10.98;4.80;;;;;;;;;;5081586;28;20044;-80
2023/03/18 03:21:05;;;;;;;10.63;6.55;;;;;;;;;;5063243;28;20144;-80
2023/03/18 03:23:31;;;;;;;9.00;5.90;;;;;;;;;;5061644;28;20044;-81
2023/03/18 03:25:58;;;;;;;10.43;5.40;;;;;;;;;;5069374;28;20048;-79
2023/03/18 03:28:25;;;;;;;9.50;5.88;;;;;;;;;;5065096;28;20499;-79
2023/03/18 03:30:52;;;;;;;11.25;6.25;;;;;;;;;;5081868;28;20097;-80
2023/03/18 03:33:19;;;;;;;8.70;5.90;;;;;;;;;;5079732;28;20112;-79
2023/03/18 03:35:47;;;;;;;11.82;5.65;;;;;;;;;;5064145;28;20048;-79
2023/03/18 03:38:13;;;;;;;11.23;5.75;;;;;;;;;;5079813;28;20040;-79
2023/03/18 03:40:44;;;;;;;9.80;5.60;;;;;;;;;;5055929;28;20156;-77
2023/03/18 03:43:12;;;;;;;9.60;5.43;;;;;;;;;;5056635;28;20480;-79
2023/03/18 03:45:39;;;;;;;10.68;5.72;;;;;;;;;;5037877;28;20144;-77
2023/03/18 03:48:05;;;;;;;11.05;5.60;;;;;;;;;;5067219;28;20133;-76
2023/03/18 03:50:32;;;;;;;9.95;5.47;;;;;;;;;;5057884;28;20045;-77
2023/03/18 03:53:01;;;;;;;8.98;5.72;;;;;;;;;;5057416;28;20056;-77
2023/03/18 03:55:28;;;;;;;9.75;5.70;;;;;;;;;;5057016;28;20145;-77
2023/03/18 03:57:55;;;;;;;9.75;5.78;;;;;;;;;;5071528;28;20051;-77
2023/03/18 04:00:23;;;;;;;11.05;6.32;;;;;;;;;;5074767;28;20080;-78
2023/03/18 04:02:51;;;;;;;11.60;5.13;;;;;;;;;;5056561;28;20144;-79
2023/03/18 04:05:20;;;;;;;9.55;5.38;;;;;;;;;;5056393;28;20052;-79
2023/03/18 04:07:48;;;;;;;8.10;4.85;;;;;;;;;;5056517;28;20045;-78
2023/03/18 04:10:17;;;;;;;9.88;5.15;;;;;;;;;;5055707;28;20045;-78
2023/03/18 04:12:45;;;;;;;8.65;4.57;;;;;;;;;;5059382;28;20115;-77
2023/03/18 04:15:13;;;;;;;9.80;4.55;;;;;;;;;;5059092;28;20053;-77
2023/03/18 04:17:40;;;;;;;9.73;4.88;;;;;;;;;;5055295;28;20454;-75
2023/03/18 04:20:08;;;;;;;7.63;4.13;;;;;;;;;;5060292;28;20051;-76
2023/03/18 04:22:35;;;;;;;7.18;4.00;;;;;;;;;;5069212;28;20055;-76
2023/03/18 04:25:01;;;;;;;7.95;4.00;;;;;;;;;;5070571;28;20040;-77
2023/03/18 04:27:29;;;;;;;8.98;4.68;;;;;;;;;;5073862;28;20048;-76
2023/03/18 04:29:56;;;;;;;9.52;4.38;;;;;;;;;;5074487;28;20471;-77
2023/03/18 04:32:23;;;;;;;9.27;4.65;;;;;;;;;;5074813;28;20537;-78
2023/03/18 04:34:50;;;;;;;8.25;4.45;;;;;;;;;;5074604;28;20072;-77
2023/03/18 04:37:18;;;;;;;9.52;5.18;;;;;;;;;;5074666;28;20059;-76
2023/03/18 04:39:45;;;;;;;9.80;5.32;;;;;;;;;;5075399;28;20044;-77
2023/03/18 04:42:12;;;;;;;11.10;5.60;;;;;;;;;;5074903;28;20040;-76
2023/03/18 04:44:40;;;;;;;10.85;5.85;;;;;;;;;;5074880;28;20396;-76
2023/03/18 04:47:07;;;;;;;11.00;6.03;;;;;;;;;;5074732;28;20047;-76
2023/03/18 04:49:34;;;;;;;10.20;5.90;;;;;;;;;;5075524;28;20102;-76
2023/03/18 04:52:01;;;;;;;11.25;6.50;;;;;;;;;;5074667;28;20047;-76
2023/03/18 04:54:28;;;;;;;12.38;6.30;;;;;;;;;;5075500;28;20151;-78
2023/03/18 04:56:54;;;;;;;10.65;6.20;;;;;;;;;;5075539;28;20098;-78
2023/03/18 04:59:21;;;;;;;12.23;6.88;;;;;;;;;;5074344;28;20048;-77
2023/03/18 05:01:49;;;;;;;13.35;7.57;;;;;;;;;;5074481;28;20468;-77
2023/03/18 05:04:16;;;;;;;13.57;7.72;;;;;;;;;;5057341;28;20045;-76
2023/03/18 05:06:43;;;;;;;13.48;7.63;;;;;;;;;;5054257;28;20045;-76
2023/03/18 05:09:09;;;;;;;14.15;8.65;;;;;;;;;;5053565;28;20044;-77
2023/03/18 05:11:37;;;;;;;15.95;8.23;;;;;;;;;;5053792;28;20060;-76
2023/03/18 05:14:03;;;;;;;16.10;8.13;;;;;;;;;;5064048;28;20072;-76
2023/03/18 05:16:30;;;;;;;13.25;7.25;;;;;;;;;;5075672;28;20047;-75
2023/03/18 05:18:58;;;;;;;12.45;7.20;;;;;;;;;;5076551;28;20098;-75
2023/03/18 05:21:24;;;;;;;14.98;7.47;;;;;;;;;;5075376;28;20049;-75
2023/03/18 05:23:51;;;;;;;12.45;7.60;;;;;;;;;;5075484;28;20143;-76
2023/03/18 05:26:17;;;;;;;11.73;7.60;;;;;;;;;;5061913;28;20045;-77
2023/03/18 05:28:44;;;;;;;11.82;6.75;;;;;;;;;;5074812;28;20048;-75
2023/03/18 05:31:11;;;;;;;12.10;7.22;;;;;;;;;;5075335;28;20045;-76
2023/03/18 05:33:37;;;;;;;12.07;7.63;;;;;;;;;;5077050;28;20051;-77
2023/03/18 05:36:06;;;;;;;12.60;6.88;;;;;;;;;;5072986;28;20384;-78
2023/03/18 05:38:33;;;;;;;10.63;6.80;;;;;;;;;;5073239;28;20094;-77
2023/03/18 05:41:00;;;;;;;10.65;7.30;;;;;;;;;;5071003;28;20135;-77
2023/03/18 05:43:27;;;;;;;11.65;6.45;;;;;;;;;;5073605;28;20453;-78
2023/03/18 05:45:54;;;;;;;11.57;6.47;;;;;;;;;;5072744;28;20637;-76
2023/03/18 05:48:21;;;;;;;11.68;6.57;;;;;;;;;;5073749;28;20052;-78
2023/03/18 05:50:48;;;;;;;13.65;6.38;;;;;;;;;;5074916;28;20145;-76
2023/03/18 05:53:15;;;;;;;12.15;6.85;;;;;;;;;;5077005;28;20045;-77
2023/03/18 05:55:43;;;;;;;12.50;7.45;;;;;;;;;;5078315;28;20131;-77
2023/03/18 05:58:10;;;;;;;12.25;6.70;;;;;;;;;;5079139;28;20079;-76
2023/03/18 06:00:37;;;;;;;10.48;6.25;;;;;;;;;;5080299;28;20048;-76
2023/03/18 06:03:04;;;;;;;10.68;6.05;;;;;;;;;;5089269;28;20070;-77
2023/03/18 06:05:31;;;;;;;9.10;4.68;;;;;;;;;;5088700;28;20048;-76
2023/03/18 06:07:58;;;;;;;12.15;5.60;;;;;;;;;;5071722;28;20056;-77
2023/03/18 06:10:26;;;;;;;13.10;6.28;;;;;;;;;;5078228;28;20051;-79
2023/03/18 06:12:54;;;;;;;11.70;6.00;;;;;;;;;;5084915;28;20067;-79
2023/03/18 06:15:21;;;;;;;9.43;5.38;;;;;;;;;;5076864;28;20045;-79
2023/03/18 06:17:48;;;;;;;11.02;6.07;;;;;;;;;;5066016;28;20041;-78
2023/03/18 06:20:15;;;;;;;9.15;5.75;;;;;;;;;;5067817;28;20123;-78
2023/03/18 06:22:42;;;;;;;11.23;5.20;;;;;;;;;;5085119;28;20076;-78
2023/03/18 06:25:09;;;;;;;12.18;6.68;;;;;;;;;;5082838;28;20044;-78
2023/03/18 06:27:37;;;;;;;11.98;6.07;;;;;;;;;;5069173;28;20084;-80
2023/03/18 06:30:05;;;;;;;14.63;6.90;;;;;;;;;;5064810;28;20109;-80
2023/03/18 06:32:32;;;;;;;14.63;7.13;;;;;;;;;;5091845;28;20055;-78
2023/03/18 06:34:59;;;;;;;11.55;6.35;;;;;;;;;;5093233;28;20024;-76
2023/03/18 06:37:27;;;;;;;13.82;6.93;;;;;;;;;;5081450;28;20048;-79
2023/03/18 06:39:54;;;;;;;9.70;5.93;;;;;;;;;;5092358;28;20045;-77
2023/03/18 06:42:20;;;;;;;15.32;6.70;;;;;;;;;;5084387;28;20071;-78
2023/03/18 06:44:50;;;;;;;10.00;5.90;;;;;;;;;;5082831;28;20500;-78
2023/03/18 06:47:18;;;;;;;12.07;6.80;;;;;;;;;;5076898;28;20053;-79
2023/03/18 06:49:45;;;;;;;12.15;5.95;;;;;;;;;;5081762;28;20040;-77
2023/03/18 06:52:13;;;;;;;10.10;5.80;;;;;;;;;;5093336;28;20086;-78
2023/03/18 06:54:39;;;;;;;11.77;5.35;;;;;;;;;;5094887;28;20067;-78
2023/03/18 06:57:07;;;;;;;12.95;5.93;;;;;;;;;;5091510;28;20053;-78
2023/03/18 06:59:34;;;;;;;10.70;5.57;;;;;;;;;;5072476;28;20040;-80
2023/03/18 07:02:02;;;;;;;9.95;5.95;;;;;;;;;;5081698;28;20058;-77
2023/03/18 07:04:29;;;;;;;12.73;5.93;;;;;;;;;;5076231;28;20040;-78
2023/03/18 07:06:56;;;;;;;13.50;5.72;;;;;;;;;;5065578;28;20049;-77
2023/03/18 07:09:23;;;;;;;9.90;5.38;;;;;;;;;;5067712;28;20070;-77
2023/03/18 07:11:50;;;;;;;10.65;5.03;;;;;;;;;;5075224;28;20104;-77
2023/03/18 07:14:17;;;;;;;11.77;5.15;;;;;;;;;;5072609;28;20127;-79
2023/03/18 07:16:44;;;;;;;11.38;5.18;;;;;;;;;;5079487;28;20056;-78
2023/03/18 07:19:14;;;;;;;10.60;5.05;;;;;;;;;;5077518;28;20124;-81
2023/03/18 07:21:41;;;;;;;9.50;4.25;;;;;;;;;;5037992;28;20118;-79
2023/03/18 07:24:08;;;;;;;11.38;4.78;;;;;;;;;;5055837;28;20136;-79
2023/03/18 07:26:36;;;;;;;11.60;5.40;;;;;;;;;;5082140;22;20952;-77
2023/03/18 07:29:03;;;;;;;11.15;5.82;;;;;;;;;;5049380;28;20045;-77
2023/03/18 07:31:30;;;;;;;10.90;5.47;;;;;;;;;;5051124;28;20495;-78
2023/03/18 07:33:56;;;;;;;9.90;6.65;;;;;;;;;;5056782;28;20044;-78
2023/03/18 07:36:25;;;;;;;10.95;6.03;;;;;;;;;;5052688;28;20071;-79
2023/03/18 07:38:52;;;;;;;8.45;5.78;;;;;;;;;;5034501;28;20075;-78
2023/03/18 07:41:18;;;;;;;13.18;7.05;;;;;;;;;;5032190;28;20053;-78
2023/03/18 07:43:45;;;;;;;9.98;5.80;;;;;;;;;;5032494;28;20149;-81
2023/03/18 07:46:12;;;;;;;10.50;6.10;;;;;;;;;;5024722;28;20084;-78
2023/03/18 07:48:38;;;;;;;9.85;5.97;;;;;;;;;;5026145;28;20077;-77
2023/03/18 07:51:05;;;;;;;8.38;5.28;;;;;;;;;;5037452;28;20108;-80
2023/03/18 07:53:34;;;;;;;10.07;5.30;;;;;;;;;;5038513;28;20208;-78
2023/03/18 07:56:02;;;;;;;9.95;5.05;;;;;;;;;;5033202;28;20129;-76
2023/03/18 07:58:29;;;;;;;10.10;4.45;;;;;;;;;;5035870;28;20042;-79
2023/03/18 08:00:56;;;;;;;8.82;4.57;;;;;;;;;;5035998;28;20141;-79
2023/03/18 08:03:23;;;;;;;9.50;4.88;;;;;;;;;;5041969;28;20076;-78
2023/03/18 08:05:50;;;;;;;9.82;5.10;;;;;;;;;;5039549;28;20076;-80
2023/03/18 08:08:20;;;;;;;10.13;5.20;;;;;;;;;;5024414;28;20053;-80
2023/03/18 08:10:48;;;;;;;10.27;5.18;;;;;;;;;;5042486;28;20546;-79
2023/03/18 08:13:21;;;;;;;9.10;5.30;;;;;;;;;;5040901;28;20132;-81
2023/03/18 08:15:48;;;;;;;11.32;5.47;;;;;;;;;;5040762;28;20471;-79
2023/03/18 08:18:14;;;;;;;9.02;5.45;;;;;;;;;;5042613;28;20045;-79
2023/03/18 08:20:41;;;;;;;8.23;5.38;;;;;;;;;;5041304;28;20045;-83
2023/03/18 08:23:08;;;;;;;11.23;6.07;;;;;;;;;;5040194;28;20085;-79
2023/03/18 08:25:34;;;;;;;8.93;5.60;;;;;;;;;;5041219;28;20046;-79
2023/03/18 08:28:06;;;;;;;14.85;5.43;;;;;;;;;;5045230;28;20056;-79
2023/03/18 08:30:32;;;;;;;10.63;5.97;;;;;;;;;;5045186;28;20058;-80
2023/03/18 08:32:59;;;;;;;9.48;5.20;;;;;;;;;;5044540;28;20042;-81
2023/03/18 08:35:26;;;;;;;6.93;4.63;;;;;;;;;;5042905;28;20077;-79
2023/03/18 08:37:53;;;;;;;9.27;4.88;;;;;;;;;;5041972;28;20049;-81
2023/03/18 08:40:20;;;;;;;10.63;5.68;;;;;;;;;;5042934;28;20049;-79
2023/03/18 08:42:47;;;;;;;7.88;4.45;;;;;;;;;;5041034;28;20113;-79
2023/03/18 08:45:15;;;;;;;8.55;4.50;;;;;;;;;;5042714;28;20049;-79
2023/03/18 08:47:42;;;;;;;6.65;4.05;;;;;;;;;;5043962;28;20034;-79
2023/03/18 08:50:10;;;;;;;9.15;4.13;;;;;;;;;;5048480;28;20477;-78
2023/03/18 08:52:38;;;;;;;6.43;3.78;;;;;;;;;;5042810;28;20493;-78
2023/03/18 08:55:06;;;;;;;7.45;4.00;;;;;;;;;;5042143;28;20100;-78
2023/03/18 08:57:33;;;;;;;11.45;4.95;;;;;;;;;;5042097;28;20651;-81
2023/03/18 09:00:00;;;;;;;7.35;4.72;;;;;;;;;;5041702;28;20077;-80
2023/03/18 09:02:27;;;;;;;6.95;3.45;;;;;;;;;;5041170;28;20053;-80
2023/03/18 09:04:55;;;;;;;5.82;2.92;;;;;;;;;;5042402;28;20045;-80
2023/03/18 09:07:21;;;;;;;7.10;3.17;;;;;;;;;;5029119;28;20130;-78
2023/03/18 09:09:48;;;;;;;7.88;2.80;;;;;;;;;;5022067;28;20042;-81
2023/03/18 09:12:15;;;;;;;8.45;3.05;;;;;;;;;;5040618;28;20056;-77
2023/03/18 09:14:42;;;;;;;6.50;2.58;;;;;;;;;;5041545;28;20123;-77
2023/03/18 09:17:09;;;;;;;7.47;2.83;;;;;;;;;;5036620;28;20972;-78
2023/03/18 09:19:37;;;;;;;7.28;3.10;;;;;;;;;;5036927;28;20084;-78
2023/03/18 09:22:04;;;;;;;7.30;3.10;;;;;;;;;;5035817;28;20085;-78
2023/03/18 09:24:33;;;;;;;6.65;3.17;;;;;;;;;;5036477;28;20076;-78
2023/03/18 09:27:00;;;;;;;4.88;2.63;;;;;;;;;;5035935;28;20049;-80
2023/03/18 09:29:30;;;;;;;8.15;3.25;;;;;;;;;;5037384;28;20113;-78
2023/03/18 09:31:56;;;;;;;7.35;3.97;;;;;;;;;;5037191;28;20046;-79
2023/03/18 09:34:23;;;;;;;9.02;3.83;;;;;;;;;;5037661;28;20109;-77
2023/03/18 09:36:51;;;;;;;6.25;3.50;;;;;;;;;;5038097;28;20084;-78
2023/03/18 09:39:18;;;;;;;6.95;3.90;;;;;;;;;;5039056;28;20056;-78
2023/03/18 09:41:58;;;;;;;7.43;3.30;;;;;;;;;;5039205;28;20088;-79
2023/03/18 09:44:29;;;;;;;5.55;3.22;;;;;;;;;;5037365;28;20049;-80
2023/03/18 09:47:11;;;;;;;6.95;2.90;;;;;;;;;;5035500;28;20073;-78
2023/03/18 09:49:50;;;;;;;5.90;3.40;;;;;;;;;;5040067;28;20109;-79
2023/03/18 09:52:22;;;;;;;6.13;2.88;;;;;;;;;;5040890;28;20049;-80
2023/03/18 09:54:55;;;;;;;5.38;2.75;;;;;;;;;;5040583;28;20504;-80
2023/03/18 09:57:26;;;;;;;8.50;4.07;;;;;;;;;;5039357;28;20045;-79
2023/03/18 09:59:54;;;;;;;;;;;;;;;;;;5040860;28;20504;-82
2023/03/18 10:02:27;;;;;;;8.05;3.00;;;;;;;;;;5039496;28;19921;-79
2023/03/18 10:04:58;;;;;;;6.47;3.22;;;;;;;;;;5040394;28;20053;-79
2023/03/18 10:07:33;;;;;;;5.75;2.65;;;;;;;;;;5047290;28;20046;-79
2023/03/18 10:10:05;;;;;;;5.82;2.78;;;;;;;;;;5042562;28;20084;-78
2023/03/18 10:12:35;;;;;;;8.02;3.00;;;;;;;;;;5041269;28;20091;-79
2023/03/18 10:15:13;;;;;;;6.10;2.90;;;;;;;;;;5047047;28;20045;-78
2023/03/18 10:17:44;;;;;;;5.05;2.85;;;;;;;;;;5045937;28;20045;-79
2023/03/18 10:20:18;;;;;;;6.57;2.70;;;;;;;;;;5042888;28;20208;-79
2023/03/18 10:23:00;;;;;;;5.85;2.95;;;;;;;;;;5038438;28;20591;-79
2023/03/18 10:25:35;;;;;;;8.25;2.75;;;;;;;;;;5043530;28;20080;-78
2023/03/18 10:28:18;;;;;;;6.30;2.80;;;;;;;;;;5043763;28;20192;-78
2023/03/18 10:30:56;;;;;;;5.20;2.65;;;;;;;;;;5046319;28;20072;-78
2023/03/18 10:33:33;;;;;;;8.73;3.83;;;;;;;;;;5049351;28;20045;-79
2023/03/18 10:36:05;;;;;;;7.68;4.13;;;;;;;;;;5043326;28;20546;-78
2023/03/18 10:38:37;;;;;;;4.05;2.08;;;;;;;;;;5036873;28;20467;-79
2023/03/18 10:41:14;;;;;;;6.40;2.60;;;;;;;;;;5045264;28;20124;-80
2023/03/18 10:43:41;;;;;;;9.75;3.50;;;;;;;;;;5037623;28;20045;-79
2023/03/18 10:46:14;;;;;;;5.55;2.33;;;;;;;;;;5038582;28;20049;-78
2023/03/18 10:48:44;;;;;;;5.63;2.67;;;;;;;;;;5036963;28;20057;-80
2023/03/18 10:51:19;;;;;;;7.60;2.60;;;;;;;;;;5039225;28;20124;-79
2023/03/18 10:53:55;;;;;;;4.50;2.30;;;;;;;;;;5038722;28;20114;-79
2023/03/18 10:56:22;;;;;;;6.60;3.25;;;;;;;;;;5037014;28;20184;-81
2023/03/18 10:58:51;;;;;;;5.00;1.90;;;;;;;;;;5038073;28;20049;-78
2023/03/18 11:01:20;;;;;;;5.95;2.58;;;;;;;;;;5038995;28;20049;-80
2023/03/18 11:03:53;;;;;;;4.97;2.25;;;;;;;;;;5038419;28;20420;-79
2023/03/18 11:06:24;;;;;;;6.45;2.65;;;;;;;;;;5033851;28;20045;-81
2023/03/18 11:09:03;;;;;;;7.18;3.05;;;;;;;;;;5035706;28;20045;-79
2023/03/18 11:11:33;;;;;;;7.50;2.88;;;;;;;;;;5040518;28;20063;-79
2023/03/18 11:14:02;;;;;;;8.13;3.50;;;;;;;;;;5039207;28;20046;-82
2023/03/18 11:16:34;;;;;;;7.30;3.33;;;;;;;;;;5039247;28;20049;-78
2023/03/18 11:19:08;;;;;;;7.03;3.10;;;;;;;;;;5036161;28;20077;-80
2023/03/18 11:21:36;;;;;;;9.07;3.67;;;;;;;;;;5036064;28;20054;-78
2023/03/18 11:24:19;;;;;;;8.63;3.75;;;;;;;;;;5034514;28;20058;-77
2023/03/18 11:26:52;;;;;;;8.10;3.38;;;;;;;;;;5033610;28;20573;-79
2023/03/18 11:29:24;;;;;;;8.25;3.95;;;;;;;;;;5035761;28;20060;-81
2023/03/18 11:31:57;;;;;;;6.95;2.97;;;;;;;;;;5037525;28;20050;-78
2023/03/18 11:34:25;;;;;;;11.02;3.65;;;;;;;;;;5038926;28;20053;-79
2023/03/18 11:36:59;;;;;;;6.45;3.30;;;;;;;;;;5041977;28;20072;-79
2023/03/18 11:39:30;;;;;;;8.00;3.17;;;;;;;;;;5042830;28;20049;-78
2023/03/18 11:41:58;;;;;;;8.65;3.50;;;;;;;;;;5043288;28;20113;-78
2023/03/18 11:44:29;;;;;;;5.97;2.72;;;;;;;;;;5041900;28;20109;-78
2023/03/18 11:47:02;;;;;;;7.10;3.50;;;;;;;;;;5043041;28;20045;-78
2023/03/18 11:49:30;;;;;;;6.53;3.13;;;;;;;;;;5040996;28;20050;-79
2023/03/18 11:52:07;;;;;;;8.50;3.30;;;;;;;;;;5039529;28;20053;-78
2023/03/18 11:54:55;;;;;;;8.10;3.40;;;;;;;;;;5039127;28;20128;-78
2023/03/18 11:57:31;;;;;;;7.00;3.53;;;;;;;;;;5039735;28;20045;-79
2023/03/18 12:00:17;;;;;;;9.52;4.10;;;;;;;;;;5038964;28;20132;-78
2023/03/18 12:03:28;;;;;;;6.38;3.08;;;;;;;;;;5041048;28;20049;-80
2023/03/18 12:06:05;;;;;;;7.95;3.40;;;;;;;;;;5039705;28;20143;-80
2023/03/18 12:08:45;;;;;;;7.78;3.53;;;;;;;;;;5029658;28;20037;-80
2023/03/18 12:11:18;;;;;;;;;;;;;;;;;;5042728;28;20105;-80
2023/03/18 12:13:55;;;;;;;8.93;3.40;;;;;;;;;;5045913;28;19921;-79
2023/03/18 12:16:35;;;;;;;7.93;3.40;;;;;;;;;;5050045;28;20069;-79
2023/03/18 12:19:28;;;;;;;7.05;3.60;;;;;;;;;;5047115;28;20045;-78
2023/03/18 12:22:14;;;;;;;7.03;3.47;;;;;;;;;;5050392;28;20056;-80
2023/03/18 12:24:54;;;;;;;8.93;3.67;;;;;;;;;;5043319;28;20061;-80
2023/03/18 12:27:33;;;;;;;6.35;3.40;;;;;;;;;;5041507;28;20103;-78
2023/03/18 12:30:23;;;;;;;9.03;4.10;;;;;;;;;;5039518;28;20049;-79
2023/03/18 12:32:57;;;;;;;7.72;3.75;;;;;;;;;;5043369;28;20063;-80
2023/03/18 12:35:38;;;;;;;7.63;3.38;;;;;;;;;;5042230;28;20098;-80
2023/03/18 12:38:27;;;;;;;7.85;3.78;;;;;;;;;;5040237;28;20481;-80
2023/03/18 12:41:03;;;;;;;8.43;3.42;;;;;;;;;;5042706;28;20053;-79
2023/03/18 12:43:50;;;;;;;12.18;5.40;;;;;;;;;;5043614;28;20111;-78
2023/03/18 12:46:26;;;;;;;9.05;3.63;;;;;;;;;;5039441;28;20053;-79
2023/03/18 12:49:01;;;;;;;6.35;3.10;;;;;;;;;;5039952;28;20132;-79
2023/03/18 12:51:34;;;;;;;7.65;3.50;;;;;;;;;;5040714;28;20049;-81
2023/03/18 12:54:10;;;;;;;7.40;3.15;;;;;;;;;;5041406;28;20060;-79
2023/03/18 12:56:42;;;;;;;10.02;3.60;;;;;;;;;;5039996;28;20057;-79
2023/03/18 12:59:17;;;;;;;11.00;4.30;;;;;;;;;;5041015;28;20412;-78
2023/03/18 13:01:52;;;;;;;7.22;3.80;;;;;;;;;;5035803;28;20595;-79
2023/03/18 13:04:22;;;;;;;7.55;3.45;;;;;;;;;;5038828;28;20053;-79
2023/03/18 13:06:56;;;;;;;8.45;3.15;;;;;;;;;;5033642;28;20046;-82
2023/03/18 13:09:27;;;;;;;8.20;3.75;;;;;;;;;;5045575;28;20053;-80
2023/03/18 13:12:06;;;;;;;6.90;3.28;;;;;;;;;;5042366;28;20113;-78
2023/03/18 13:14:55;;;;;;;10.02;3.80;;;;;;;;;;5022638;28;20118;-79
2023/03/18 13:17:28;;;;;;;9.23;3.47;;;;;;;;;;5039763;28;20045;-77
2023/03/18 13:19:58;;;;;;;8.52;3.35;;;;;;;;;;5042452;28;20494;-79
2023/03/18 13:22:58;;;;;;;5.80;3.30;;;;;;;;;;5043343;28;20052;-77
2023/03/18 13:25:36;;;;;;;7.15;3.25;;;;;;;;;;5021541;28;20046;-78
2023/03/18 13:28:19;;;;;;;7.82;3.65;;;;;;;;;;5039770;28;20458;-80
2023/03/18 13:30:59;;;;;;;5.78;2.80;;;;;;;;;;5038642;28;20572;-78
2023/03/18 13:33:47;;;;;;;7.05;2.88;;;;;;;;;;5062777;22;20041;-81
2023/03/18 13:36:51;;;;;;;8.65;2.58;;;;;;;;;;5047315;28;20146;-82
2023/03/18 13:39:30;;;;;;;8.27;3.50;;;;;;;;;;5062440;28;20511;-80
2023/03/18 13:42:25;;;;;;;6.85;3.25;;;;;;;;;;5057636;28;20045;-84
2023/03/18 13:45:05;;;;;;;8.68;2.75;;;;;;;;;;5041696;28;20041;-82
2023/03/18 13:47:36;;;;;;;7.50;3.13;;;;;;;;;;5039732;28;20068;-82
2023/03/18 13:50:06;;;;;;;7.65;3.80;;;;;;;;;;5040398;28;20056;-84
2023/03/18 13:52:43;;;;;;;7.57;3.77;;;;;;;;;;5021453;28;20072;-83
2023/03/18 13:55:26;;;;;;;6.28;2.72;;;;;;;;;;5031326;28;20068;-84
2023/03/18 13:58:08;;;;;;;4.30;2.53;;;;;;;;;;5040475;28;20038;-83
2023/03/18 14:00:39;;;;;;;8.00;3.65;;;;;;;;;;5039440;28;20053;-82
2023/03/18 14:03:32;;;;;;;8.38;3.58;;;;;;;;;;5039884;28;20116;-84
2023/03/18 14:06:38;;;;;;;4.95;2.90;;;;;;;;;;5039943;28;20045;-85
2023/03/18 14:09:31;;;;;;;8.80;3.33;;;;;;;;;;5040095;28;20789;-84
2023/03/18 14:14:56;;;;;;;7.90;4.22;;;;;;;;;;4988598;28;20138;-77
2023/03/18 14:17:31;;;;;;;8.70;4.07;;;;;;;;;;5018900;28;20048;-77
2023/03/18 14:20:21;;;;;;;6.57;3.22;;;;;;;;;;5033320;28;20072;-77
2023/03/18 14:22:53;;;;;;;5.97;3.00;;;;;;;;;;5015892;28;20124;-78
2023/03/18 14:25:45;;;;;;;6.40;2.75;;;;;;;;;;5023686;28;20049;-77
2023/03/18 14:28:25;;;;;;;6.80;2.60;;;;;;;;;;5036711;28;20069;-79
2023/03/18 14:31:15;;;;;;;6.35;2.70;;;;;;;;;;5037500;28;20073;-79
2023/03/18 14:33:59;;;;;;;5.83;3.00;;;;;;;;;;5037088;28;20060;-79
2023/03/18 14:36:59;;;;;;;5.60;2.30;;;;;;;;;;5036504;28;20050;-79
2023/03/18 14:39:36;;;;;;;7.35;2.70;;;;;;;;;;5024733;28;20060;-85
2023/03/18 14:42:27;;;;;;;5.22;2.28;;;;;;;;;;5028999;28;20057;-78
2023/03/18 14:45:06;;;;;;;6.32;2.53;;;;;;;;;;5040044;28;20519;-79
2023/03/18 14:47:45;;;;;;;5.50;2.80;;;;;;;;;;5025292;28;20050;-77
2023/03/18 14:50:22;;;;;;;5.97;2.80;;;;;;;;;;5027771;28;20050;-77
2023/03/18 14:52:59;;;;;;;4.63;2.33;;;;;;;;;;5032294;28;21294;-78
2023/03/18 14:55:35;;;;;;;5.00;2.40;;;;;;;;;;5030636;28;20052;-78
2023/03/18 14:58:02;;;;;;;5.80;2.83;;;;;;;;;;5032288;28;20071;-78
2023/03/18 15:00:34;;;;;;;7.50;4.57;;;;;;;;;;5032186;28;20049;-78
2023/03/18 15:03:08;;;;;;;6.20;3.28;;;;;;;;;;5031635;28;20037;-77
2023/03/18 15:05:39;;;;;;;7.38;3.45;;;;;;;;;;5033610;28;20050;-78